createdAt,value
2017-09-15T00:07:20.000Z,11.4
2017-09-15T00:24:01.000Z,11.4
2017-09-15T00:40:40.000Z,11.4
2017-09-15T00:57:20.000Z,11
2017-09-15T01:13:59.000Z,11
2017-09-15T01:30:39.000Z,11
2017-09-15T01:47:18.000Z,11
2017-09-15T02:03:57.000Z,11
2017-09-15T02:20:38.000Z,11
2017-09-15T02:37:17.000Z,11
2017-09-15T02:53:56.000Z,11
2017-09-15T03:10:37.000Z,11
2017-09-15T03:27:16.000Z,11
2017-09-15T03:43:55.000Z,11
2017-09-15T04:00:34.000Z,11
2017-09-15T04:17:14.000Z,10.7
2017-09-15T04:33:53.000Z,10.7
2017-09-15T04:50:32.000Z,10.7
2017-09-15T05:07:11.000Z,10.7
2017-09-15T05:23:50.000Z,10.4
2017-09-15T05:40:29.000Z,10.4
2017-09-15T05:57:09.000Z,10.7
2017-09-15T06:13:48.000Z,11
2017-09-15T06:30:29.000Z,11.7
2017-09-15T06:47:09.000Z,11.7
2017-09-15T07:03:49.000Z,11.7
2017-09-15T07:20:29.000Z,11.7
2017-09-15T07:37:10.000Z,12.3
2017-09-15T07:53:51.000Z,12.3
2017-09-15T08:10:32.000Z,13
2017-09-15T08:27:13.000Z,13.6
2017-09-15T08:40:34.000Z,13
2017-09-15T08:57:15.000Z,12.6
2017-09-15T09:13:57.000Z,13
2017-09-15T09:30:38.000Z,13.3
2017-09-15T09:40:39.000Z,13.9
2017-09-15T09:54:01.000Z,14.6
2017-09-15T10:10:44.000Z,14.6
2017-09-15T10:27:27.000Z,14.6
2017-09-15T10:40:48.000Z,15.2
2017-09-15T10:47:30.000Z,16.2
2017-09-15T10:54:11.000Z,16.8
2017-09-15T11:04:14.000Z,16.8
2017-09-15T11:20:59.000Z,16.2
2017-09-15T11:27:40.000Z,15.5
2017-09-15T11:37:43.000Z,14.9
2017-09-15T11:54:25.000Z,15.5
2017-09-15T12:01:06.000Z,16.5
2017-09-15T12:17:51.000Z,16.2
2017-09-15T12:34:35.000Z,15.8
2017-09-15T12:51:18.000Z,16.2
2017-09-15T13:08:02.000Z,16.5
2017-09-15T13:24:47.000Z,16.2
2017-09-15T13:41:31.000Z,15.8
2017-09-15T13:58:14.000Z,16.2
2017-09-15T14:14:58.000Z,16.2
2017-09-15T14:31:42.000Z,15.8
2017-09-15T14:48:26.000Z,15.8
2017-09-15T15:05:09.000Z,16.2
2017-09-15T15:21:53.000Z,15.5
2017-09-15T15:38:36.000Z,15.5
2017-09-15T15:55:20.000Z,15.8
2017-09-15T16:12:03.000Z,15.2
2017-09-15T16:25:25.000Z,14.6
2017-09-15T16:42:07.000Z,14.2
2017-09-15T16:58:51.000Z,14.2
2017-09-15T17:05:31.000Z,13.6
2017-09-15T17:15:32.000Z,13.3
2017-09-15T17:32:13.000Z,13
2017-09-15T17:48:54.000Z,12.3
2017-09-15T18:05:35.000Z,12
2017-09-15T18:22:16.000Z,11.7
2017-09-15T18:38:56.000Z,11.7
2017-09-15T18:55:35.000Z,11.4
2017-09-15T19:12:15.000Z,11
2017-09-15T19:28:55.000Z,11
2017-09-15T19:45:35.000Z,10.7
2017-09-15T20:02:14.000Z,10.7
2017-09-15T20:18:54.000Z,10.4
2017-09-15T20:35:33.000Z,10.4
2017-09-15T20:52:12.000Z,10.1
2017-09-15T21:08:51.000Z,10.1
2017-09-15T21:25:30.000Z,9.8
2017-09-15T21:42:09.000Z,9.8
2017-09-15T21:58:48.000Z,9.8
2017-09-15T22:15:27.000Z,9.8
2017-09-15T22:32:06.000Z,9.4
2017-09-15T22:48:44.000Z,9.4
2017-09-15T23:05:22.000Z,9.1
2017-09-15T23:22:01.000Z,9.1
2017-09-15T23:38:39.000Z,8.8
2017-09-15T23:55:17.000Z,8.8
